Time;durP1;ratioP1;P1;durP2;ratioP2;P2;SDS_P1;SDS_P2;PMS_P1;PMS_P2;Temp;Humidity;BMP_temperature;BMP_pressure;BME280_temperature;BME280_humidity;BME280_pressure;Samples;Min_cycle;Max_cycle;Signal;HPM_P1;HPM_P2
2021/12/01 00:00:18;;;;;;;24.35;7.15;;;10.10;99.90;;;;;;5035285;28;20477;-79
2021/12/01 00:02:53;;;;;;;20.10;6.53;;;10.20;99.90;;;;;;5035506;28;20021;-79
2021/12/01 00:05:23;;;;;;;18.33;6.47;;;10.20;99.90;;;;;;5035009;28;20053;-79
2021/12/01 00:07:51;;;;;;;19.65;6.85;;;10.20;99.90;;;;;;5035110;28;20025;-79
2021/12/01 00:10:19;;;;;;;20.08;5.68;;;10.20;99.90;;;;;;5034849;28;20091;-79
2021/12/01 00:12:45;;;;;;;15.55;5.28;;;10.20;99.90;;;;;;5035108;28;20066;-79
2021/12/01 00:15:11;;;;;;;17.45;5.72;;;10.20;99.90;;;;;;5035039;28;20060;-78
2021/12/01 00:17:37;;;;;;;18.33;5.18;;;10.20;99.90;;;;;;5034816;28;20045;-79
2021/12/01 00:20:05;;;;;;;14.05;4.65;;;10.20;99.90;;;;;;5034813;28;20091;-79
2021/12/01 00:22:31;;;;;;;17.90;5.15;;;10.20;99.90;;;;;;5017070;28;20116;-79
2021/12/01 00:24:57;;;;;;;13.82;5.40;;;10.20;99.90;;;;;;5034904;28;20056;-79
2021/12/01 00:27:22;;;;;;;19.17;4.75;;;10.20;99.90;;;;;;5034517;28;20164;-79
2021/12/01 00:29:49;;;;;;;14.45;4.78;;;10.20;99.90;;;;;;5034687;28;20052;-79
2021/12/01 00:32:16;;;;;;;12.65;5.00;;;10.20;99.90;;;;;;5035041;28;20496;-79
2021/12/01 00:34:41;;;;;;;13.80;4.88;;;10.20;99.90;;;;;;5034723;28;20025;-79
2021/12/01 00:37:07;;;;;;;12.60;4.95;;;10.20;99.90;;;;;;5034445;28;20037;-79
2021/12/01 00:39:32;;;;;;;14.27;5.05;;;10.20;99.90;;;;;;5034454;28;20469;-79
2021/12/01 00:41:59;;;;;;;15.93;5.05;;;10.20;99.90;;;;;;5034533;28;20068;-79
2021/12/01 00:44:25;;;;;;;19.40;5.32;;;10.20;99.90;;;;;;5034722;28;20018;-79
2021/12/01 00:46:56;;;;;;;16.92;4.60;;;10.20;99.90;;;;;;5034395;28;20025;-79
2021/12/01 00:49:22;;;;;;;11.18;4.47;;;10.20;99.90;;;;;;5034236;28;20053;-79
2021/12/01 00:51:47;;;;;;;18.65;5.22;;;10.20;99.90;;;;;;5034636;28;20049;-79
2021/12/01 00:54:13;;;;;;;12.90;5.07;;;10.20;99.90;;;;;;5034423;28;20017;-79
2021/12/01 00:56:39;;;;;;;14.60;4.45;;;10.20;99.90;;;;;;5034121;28;20029;-79
2021/12/01 00:59:05;;;;;;;17.23;4.18;;;10.20;99.90;;;;;;5034789;28;20650;-79
2021/12/01 01:01:31;;;;;;;12.13;4.72;;;10.20;99.90;;;;;;5049601;28;20361;-79
2021/12/01 01:03:57;;;;;;;14.50;3.97;;;10.20;99.90;;;;;;5034548;28;20022;-79
2021/12/01 01:06:22;;;;;;;11.27;3.47;;;10.20;99.90;;;;;;5034558;28;20033;-79
2021/12/01 01:08:48;;;;;;;12.73;3.53;;;10.10;99.90;;;;;;5034124;28;20450;-79
2021/12/01 01:16:43;;;;;;;11.27;2.80;;;10.10;99.90;;;;;;5033573;28;20380;-79
2021/12/01 01:19:10;;;;;;;13.55;2.95;;;10.10;99.90;;;;;;5049274;28;20532;-79
2021/12/01 01:21:41;;;;;;;6.97;2.03;;;10.10;99.90;;;;;;5033786;28;20063;-79
2021/12/01 01:24:07;;;;;;;11.13;2.80;;;10.10;99.90;;;;;;5034196;28;20102;-79
2021/12/01 01:26:33;;;;;;;9.77;2.08;;;10.20;99.90;;;;;;5033813;28;20393;-79
2021/12/01 01:28:59;;;;;;;9.52;2.25;;;10.10;99.90;;;;;;5034201;28;20060;-79
2021/12/01 01:31:25;;;;;;;11.88;2.83;;;10.10;99.90;;;;;;5034079;28;20044;-79
2021/12/01 01:33:51;;;;;;;9.70;2.10;;;10.20;99.90;;;;;;5034623;28;20029;-79
2021/12/01 01:36:17;;;;;;;11.85;3.20;;;10.20;98.60;;;;;;5033861;28;20033;-79
2021/12/01 01:38:44;;;;;;;11.05;3.28;;;10.20;96.80;;;;;;5033519;28;20025;-79
2021/12/01 01:41:11;;;;;;;8.25;1.88;;;10.20;95.60;;;;;;5034071;28;20040;-79
2021/12/01 01:43:38;;;;;;;8.75;1.83;;;10.20;99.90;;;;;;5033677;28;20032;-79
2021/12/01 01:46:05;;;;;;;11.48;2.10;;;10.10;97.70;;;;;;5034060;28;20461;-79
2021/12/01 01:48:44;;;;;;;10.52;2.28;;;10.20;93.40;;;;;;5034340;28;20104;-79
2021/12/01 01:51:10;;;;;;;7.03;1.33;;;10.20;93.60;;;;;;5034000;28;20013;-79
2021/12/01 01:53:36;;;;;;;10.18;1.70;;;10.20;99.90;;;;;;5034311;28;20079;-79
2021/12/01 01:56:05;;;;;;;11.98;1.58;;;10.20;99.90;;;;;;5033467;28;20176;-79
2021/12/01 01:58:30;;;;;;;8.15;1.75;;;10.20;98.00;;;;;;5033902;28;20083;-79
2021/12/01 02:01:08;;;;;;;7.05;1.55;;;10.20;99.90;;;;;;5033649;28;20025;-79
2021/12/01 02:03:44;;;;;;;4.90;1.20;;;10.20;88.70;;;;;;5049009;28;20036;-79
2021/12/01 02:06:11;;;;;;;5.80;1.00;;;10.20;92.80;;;;;;5033710;28;20022;-79
2021/12/01 02:08:40;;;;;;;8.57;1.23;;;10.20;80.60;;;;;;5033350;28;20497;-79
2021/12/01 02:11:12;;;;;;;5.63;1.30;;;10.10;76.30;;;;;;5033872;28;20128;-79
2021/12/01 02:13:39;;;;;;;9.25;1.42;;;10.10;76.10;;;;;;5033343;28;20104;-79
2021/12/01 02:16:16;;;;;;;7.30;1.33;;;10.10;71.00;;;;;;5023521;28;20113;-79
2021/12/01 02:18:42;;;;;;;9.10;1.63;;;10.10;74.70;;;;;;5013985;28;20532;-78
2021/12/01 02:21:27;;;;;;;7.57;1.13;;;10.10;65.70;;;;;;5013856;28;20490;-78
2021/12/01 02:23:56;;;;;;;11.98;1.73;;;10.10;77.70;;;;;;5014108;28;20030;-78
2021/12/01 02:26:24;;;;;;;9.90;1.63;;;10.10;82.10;;;;;;5014024;28;20050;-78
2021/12/01 02:28:53;;;;;;;7.80;1.00;;;10.10;91.50;;;;;;5015942;28;20050;-78
2021/12/01 02:31:19;;;;;;;11.82;2.47;;;10.10;89.40;;;;;;5017367;28;20040;-78
2021/12/01 02:33:45;;;;;;;12.35;1.98;;;10.10;63.20;;;;;;5017804;28;20033;-78
2021/12/01 02:36:13;;;;;;;11.50;1.35;;;10.10;46.30;;;;;;5017243;28;20033;-78
2021/12/01 02:38:41;;;;;;;8.45;1.48;;;10.10;19.70;;;;;;5017559;28;20061;-78
2021/12/01 02:41:07;;;;;;;10.07;1.70;;;10.10;11.20;;;;;;5017377;28;20037;-78
2021/12/01 02:43:34;;;;;;;8.43;1.65;;;10.10;1.00;;;;;;5017393;28;20022;-78
2021/12/01 02:45:59;;;;;;;7.05;1.15;;;10.20;1.00;;;;;;5017640;28;20112;-78
2021/12/01 02:48:25;;;;;;;13.02;1.67;;;10.10;1.00;;;;;;5017107;28;20436;-78
2021/12/01 02:50:52;;;;;;;10.48;1.42;;;10.10;1.00;;;;;;5017258;28;20665;-78
2021/12/01 02:53:23;;;;;;;13.32;1.40;;;10.10;1.00;;;;;;5017785;28;20541;-78
2021/12/01 02:55:56;;;;;;;9.98;1.40;;;10.10;1.00;;;;;;5017003;28;20474;-78
2021/12/01 02:58:22;;;;;;;14.13;1.48;;;10.10;5.90;;;;;;5016891;28;20115;-78
2021/12/01 03:00:50;;;;;;;5.38;1.15;;;10.20;1.00;;;;;;5017137;28;20030;-78
2021/12/01 03:03:16;;;;;;;8.55;1.10;;;10.20;15.40;;;;;;5017013;28;20038;-78
2021/12/01 03:05:46;;;;;;;9.63;1.95;;;10.20;39.00;;;;;;5016969;28;20022;-79
2021/12/01 03:08:17;;;;;;;10.27;1.27;;;10.20;62.60;;;;;;5017009;28;20037;-78
2021/12/01 03:10:47;;;;;;;;;;;10.20;50.30;;;;;;5017527;28;20061;-78
2021/12/01 03:13:14;;;;;;;11.30;1.70;;;10.10;59.90;;;;;;5017021;28;19905;-78
2021/12/01 03:15:41;;;;;;;9.27;1.40;;;10.20;28.30;;;;;;5016915;28;20029;-78
2021/12/01 03:18:07;;;;;;;9.13;1.63;;;10.20;4.30;;;;;;5016598;28;20385;-78
2021/12/01 03:20:33;;;;;;;8.82;1.67;;;10.20;1.00;;;;;;5032044;28;20030;-78
2021/12/01 03:22:58;;;;;;;6.88;1.65;;;10.20;1.00;;;;;;5016646;28;20105;-78
2021/12/01 03:25:25;;;;;;;11.18;1.30;;;10.20;1.00;;;;;;5016454;28;20030;-78
2021/12/01 03:27:50;;;;;;;10.02;1.25;;;10.20;1.00;;;;;;5016037;28;20061;-78
2021/12/01 03:30:17;;;;;;;10.13;2.28;;;10.20;1.00;;;;;;5018605;28;20053;-78
2021/12/01 03:32:43;;;;;;;19.30;2.10;;;10.20;1.00;;;;;;5036046;28;20036;-78
2021/12/01 03:35:11;;;;;;;16.95;1.77;;;10.20;1.00;;;;;;5036095;28;20025;-78
2021/12/01 03:37:38;;;;;;;12.00;1.95;;;10.20;1.00;;;;;;5035821;28;20038;-79
2021/12/01 03:40:05;;;;;;;11.40;2.30;;;10.20;1.00;;;;;;5035865;28;20412;-78
2021/12/01 03:42:31;;;;;;;19.38;2.38;;;10.20;1.00;;;;;;5035810;28;20060;-78
2021/12/01 03:44:56;;;;;;;12.27;1.40;;;10.20;1.00;;;;;;5036004;28;20021;-78
2021/12/01 03:47:23;;;;;;;14.60;1.80;;;10.20;99.90;;;;;;5035635;28;20517;-78
2021/12/01 03:49:49;;;;;;;12.85;2.10;;;10.20;99.90;;;;;;5034998;28;20029;-78
2021/12/01 03:52:16;;;;;;;19.85;2.05;;;10.20;99.90;;;;;;5035513;28;20037;-77
2021/12/01 03:54:44;;;;;;;14.57;1.75;;;10.10;99.90;;;;;;5035623;28;20570;-78
2021/12/01 03:57:10;;;;;;;16.60;3.10;;;10.20;99.90;;;;;;5035098;28;20534;-78
2021/12/01 03:59:35;;;;;;;10.05;1.63;;;10.10;99.90;;;;;;5035286;28;20106;-78
2021/12/01 04:02:01;;;;;;;19.20;2.35;;;10.20;99.90;;;;;;5035256;28;20021;-77
2021/12/01 04:04:26;;;;;;;16.92;2.40;;;10.10;99.90;;;;;;5035398;28;20049;-78
2021/12/01 04:06:52;;;;;;;17.92;2.45;;;10.20;99.90;;;;;;5035416;28;20033;-78
2021/12/01 04:09:18;;;;;;;13.68;1.92;;;10.20;99.90;;;;;;5035315;28;20022;-77
2021/12/01 04:11:43;;;;;;;15.68;2.50;;;10.20;99.90;;;;;;5035192;28;20451;-78
2021/12/01 04:14:09;;;;;;;13.70;1.67;;;10.20;99.90;;;;;;5050224;28;20024;-77
2021/12/01 04:16:34;;;;;;;19.60;2.17;;;10.20;99.90;;;;;;5035099;28;20068;-78
2021/12/01 04:19:00;;;;;;;21.10;2.63;;;10.20;99.90;;;;;;5034733;28;20021;-77
2021/12/01 04:21:27;;;;;;;13.55;1.95;;;10.20;99.90;;;;;;5034777;28;20025;-77
2021/12/01 04:23:54;;;;;;;14.98;2.28;;;10.20;99.90;;;;;;5034991;28;20032;-78
2021/12/01 04:26:23;;;;;;;11.55;2.13;;;10.30;99.90;;;;;;5035447;28;20021;-77
2021/12/01 04:28:49;;;;;;;16.48;2.65;;;10.30;99.90;;;;;;5034596;28;20087;-78
2021/12/01 04:31:16;;;;;;;15.15;1.73;;;10.30;99.90;;;;;;5034722;28;20057;-77
2021/12/01 04:33:42;;;;;;;11.73;1.92;;;10.30;99.90;;;;;;5034539;28;20515;-77
2021/12/01 04:36:08;;;;;;;13.77;1.60;;;10.30;99.90;;;;;;5034193;28;20030;-77
2021/12/01 04:38:34;;;;;;;9.60;1.45;;;10.30;99.90;;;;;;5016719;28;20474;-78
2021/12/01 04:40:59;;;;;;;9.95;1.45;;;10.30;99.90;;;;;;5034281;28;20032;-77
2021/12/01 04:43:25;;;;;;;10.85;1.70;;;10.30;99.90;;;;;;5034620;28;20018;-78
2021/12/01 04:45:58;;;;;;;6.13;1.42;;;10.30;99.90;;;;;;5017054;28;20515;-78
2021/12/01 04:48:24;;;;;;;6.47;1.67;;;10.30;99.90;;;;;;5034893;28;20062;-78
2021/12/01 04:50:50;;;;;;;6.75;1.20;;;10.30;99.90;;;;;;5033432;28;20033;-78
2021/12/01 04:53:15;;;;;;;3.33;0.73;;;10.30;99.90;;;;;;5034323;28;20021;-78
2021/12/01 04:55:41;;;;;;;4.68;0.80;;;10.20;99.90;;;;;;5034344;28;20075;-78
2021/12/01 04:58:06;;;;;;;2.58;1.00;;;10.20;99.90;;;;;;5034116;28;20033;-78
2021/12/01 05:00:35;;;;;;;3.47;0.88;;;10.20;99.90;;;;;;5034045;28;20018;-78
2021/12/01 05:03:01;;;;;;;2.05;0.95;;;10.20;99.90;;;;;;5034261;28;20100;-77
2021/12/01 05:05:26;;;;;;;3.20;1.75;;;10.20;99.90;;;;;;5033958;28;20108;-78
2021/12/01 05:07:53;;;;;;;1.83;0.85;;;10.10;99.90;;;;;;5033885;28;20029;-77
2021/12/01 05:10:19;;;;;;;1.42;0.40;;;10.10;99.90;;;;;;5034241;28;20018;-80
2021/12/01 05:12:44;;;;;;;1.70;0.45;;;10.10;99.90;;;;;;5034188;28;20469;-79
2021/12/01 05:15:10;;;;;;;0.68;0.45;;;10.10;99.90;;;;;;5034348;28;20032;-80
2021/12/01 05:18:12;;;;;;;2.42;0.60;;;10.10;99.90;;;;;;5015973;28;20029;-80
2021/12/01 05:20:39;;;;;;;2.17;0.70;;;10.10;99.90;;;;;;5014175;28;20049;-80
2021/12/01 05:23:05;;;;;;;1.98;0.32;;;10.10;99.90;;;;;;5014749;28;20026;-79
2021/12/01 05:25:30;;;;;;;2.30;0.90;;;10.00;99.90;;;;;;5024647;28;20072;-80
2021/12/01 05:27:56;;;;;;;2.28;0.55;;;10.00;99.90;;;;;;5031159;28;20013;-80
2021/12/01 05:30:22;;;;;;;3.65;0.80;;;9.90;99.90;;;;;;5033174;28;20477;-80
2021/12/01 05:32:47;;;;;;;2.10;0.50;;;9.90;99.90;;;;;;5030448;28;20028;-80
2021/12/01 05:35:13;;;;;;;1.00;0.40;;;9.90;99.90;;;;;;5030676;28;20053;-80
2021/12/01 05:37:39;;;;;;;0.95;0.20;;;9.90;99.90;;;;;;5029647;28;20041;-79
2021/12/01 05:40:05;;;;;;;1.00;0.30;;;9.90;99.90;;;;;;5027266;28;20524;-79
2021/12/01 05:42:31;;;;;;;0.63;0.20;;;9.90;99.90;;;;;;5025739;28;20025;-80
2021/12/01 05:44:57;;;;;;;0.40;0.40;;;9.80;99.90;;;;;;5032998;28;20017;-80
2021/12/01 05:47:22;;;;;;;1.95;0.40;;;9.80;99.90;;;;;;5030647;28;20026;-80
2021/12/01 05:49:48;;;;;;;1.83;0.30;;;9.80;99.90;;;;;;5031132;28;20409;-79
2021/12/01 05:52:15;;;;;;;0.60;0.60;;;9.70;99.90;;;;;;5030862;28;20029;-79
2021/12/01 05:54:42;;;;;;;1.27;0.50;;;9.80;99.90;;;;;;5031383;28;20544;-80
2021/12/01 05:57:07;;;;;;;1.88;0.50;;;9.80;99.90;;;;;;5031518;28;20160;-81
2021/12/01 05:59:33;;;;;;;2.70;0.60;;;9.70;99.90;;;;;;5031126;28;20089;-80
2021/12/01 06:01:59;;;;;;;2.40;0.52;;;9.70;99.90;;;;;;5031866;28;20500;-80
2021/12/01 06:04:24;;;;;;;1.88;0.40;;;9.70;99.90;;;;;;5034936;28;20029;-79
2021/12/01 06:06:51;;;;;;;0.90;0.40;;;9.70;99.90;;;;;;5035005;28;20033;-80
2021/12/01 06:09:16;;;;;;;2.10;0.98;;;9.70;99.90;;;;;;5035110;28;20125;-80
2021/12/01 06:11:42;;;;;;;1.65;0.95;;;9.80;99.90;;;;;;5035117;28;20517;-80
2021/12/01 06:14:09;;;;;;;2.30;1.10;;;9.70;99.90;;;;;;5034679;28;20028;-80
2021/12/01 06:16:35;;;;;;;3.13;1.02;;;9.70;99.90;;;;;;5034209;28;20041;-80
2021/12/01 06:19:00;;;;;;;1.25;0.57;;;9.70;99.90;;;;;;5010743;28;20290;-79
2021/12/01 06:21:26;;;;;;;2.38;0.63;;;9.70;99.90;;;;;;5015136;28;20018;-80
2021/12/01 06:23:52;;;;;;;2.85;0.82;;;9.70;99.90;;;;;;5020446;28;20061;-79
2021/12/01 06:26:18;;;;;;;3.88;0.70;;;9.70;99.90;;;;;;5034884;28;20029;-80
2021/12/01 06:28:43;;;;;;;4.05;0.60;;;9.70;99.90;;;;;;5034600;28;20056;-79
2021/12/01 06:31:09;;;;;;;4.60;0.60;;;9.70;99.90;;;;;;5035367;28;20104;-80
2021/12/01 06:33:35;;;;;;;4.82;0.80;;;9.60;99.90;;;;;;5034071;28;20489;-79
2021/12/01 06:36:00;;;;;;;5.45;0.60;;;9.60;99.90;;;;;;5034509;28;20021;-79
2021/12/01 06:38:26;;;;;;;5.50;0.60;;;9.60;99.90;;;;;;5034318;28;20034;-79
2021/12/01 06:40:52;;;;;;;4.45;1.60;;;9.70;99.90;;;;;;5034735;28;20428;-77
2021/12/01 06:43:17;;;;;;;1.75;0.73;;;9.70;99.90;;;;;;5034454;28;20037;-78
2021/12/01 06:45:43;;;;;;;6.07;1.35;;;9.70;99.90;;;;;;5034308;28;20024;-79
2021/12/01 06:48:09;;;;;;;8.65;1.45;;;9.80;99.90;;;;;;5034704;28;20036;-79
2021/12/01 06:50:34;;;;;;;9.73;1.17;;;9.80;99.90;;;;;;5035440;28;20406;-79
2021/12/01 06:53:00;;;;;;;6.63;1.35;;;9.80;99.90;;;;;;5036792;28;20017;-78
2021/12/01 06:55:26;;;;;;;9.63;1.30;;;9.80;99.90;;;;;;5036731;28;20024;-79
2021/12/01 06:57:52;;;;;;;14.93;2.35;;;9.80;99.90;;;;;;5036693;28;20033;-81
2021/12/01 07:00:20;;;;;;;5.82;1.05;;;9.80;99.90;;;;;;5039641;28;20033;-78
2021/12/01 07:02:52;;;;;;;11.10;1.30;;;9.80;99.90;;;;;;5040058;28;20033;-78
2021/12/01 07:05:18;;;;;;;8.90;1.33;;;9.80;99.90;;;;;;5056282;28;20032;-79
2021/12/01 07:07:43;;;;;;;5.38;1.38;;;9.80;99.90;;;;;;5056551;28;20027;-78
2021/12/01 07:10:12;;;;;;;8.02;1.67;;;9.70;99.90;;;;;;5053049;28;20033;-79
2021/12/01 07:12:39;;;;;;;9.98;1.50;;;9.80;99.90;;;;;;5035982;28;20512;-78
2021/12/01 07:18:27;;;;;;;9.55;1.52;;;9.80;99.90;;;;;;5016318;28;20044;-78
2021/12/01 07:20:53;;;;;;;13.65;1.15;;;9.90;99.90;;;;;;5016469;28;20029;-78
2021/12/01 07:23:19;;;;;;;10.63;1.38;;;9.90;99.90;;;;;;5040007;28;20096;-78
2021/12/01 07:25:44;;;;;;;9.90;1.50;;;9.80;99.90;;;;;;5043574;28;20067;-79
2021/12/01 07:28:10;;;;;;;8.38;1.67;;;9.80;99.90;;;;;;5046210;28;20053;-79
2021/12/01 07:30:37;;;;;;;10.00;1.40;;;9.80;99.90;;;;;;5041689;28;20048;-79
2021/12/01 07:33:04;;;;;;;11.30;1.15;;;9.90;99.90;;;;;;5047627;28;20491;-78
2021/12/01 07:35:29;;;;;;;6.57;1.33;;;9.90;99.90;;;;;;5026311;28;20021;-78
2021/12/01 07:37:55;;;;;;;5.65;0.98;;;9.80;99.90;;;;;;5044253;28;20027;-78
2021/12/01 07:40:20;;;;;;;5.47;1.15;;;9.90;99.90;;;;;;5055657;28;20018;-78
2021/12/01 07:42:46;;;;;;;10.27;1.05;;;9.90;99.90;;;;;;5055595;28;20021;-79
2021/12/01 07:45:18;;;;;;;9.70;1.13;;;9.80;99.90;;;;;;5052999;28;20033;-78
2021/12/01 07:47:44;;;;;;;12.52;2.53;;;9.70;99.90;;;;;;5037352;28;20028;-79
2021/12/01 07:50:10;;;;;;;9.45;1.52;;;9.60;99.90;;;;;;5043946;28;20021;-78
2021/12/01 07:52:56;;;;;;;10.43;1.10;;;9.50;99.90;;;;;;5049989;28;20029;-79
2021/12/01 07:55:22;;;;;;;6.93;0.98;;;9.30;99.90;;;;;;5055601;28;20028;-79
2021/12/01 07:57:47;;;;;;;13.02;1.85;;;9.10;99.90;;;;;;5055310;28;20457;-80
2021/12/01 08:00:14;;;;;;;12.13;1.58;;;8.90;99.90;;;;;;5049402;28;20072;-79
2021/12/01 08:02:40;;;;;;;12.13;1.40;;;9.00;99.90;;;;;;5042049;28;20023;-79
2021/12/01 08:05:07;;;;;;;9.10;1.13;;;8.90;97.20;;;;;;5055237;28;20017;-79
2021/12/01 08:07:35;;;;;;;6.82;1.13;;;8.80;1.00;;;;;;5055179;28;20469;-79
2021/12/01 08:10:05;;;;;;;7.35;1.48;;;8.90;1.00;;;;;;5055642;28;20103;-79
2021/12/01 08:12:33;;;;;;;5.15;0.80;;;8.70;27.90;;;;;;5055088;28;20016;-80
2021/12/01 08:14:59;;;;;;;6.05;1.20;;;8.80;12.50;;;;;;5055629;28;20460;-80
2021/12/01 08:17:25;;;;;;;8.32;1.13;;;8.80;1.00;;;;;;5054873;28;20025;-80
2021/12/01 08:19:50;;;;;;;9.32;1.23;;;8.90;1.00;;;;;;5053403;28;20028;-79
2021/12/01 08:22:16;;;;;;;7.35;0.90;;;9.10;1.00;;;;;;5035445;28;20022;-79
2021/12/01 08:24:41;;;;;;;7.05;1.10;;;9.20;1.00;;;;;;5034793;28;20026;-80
2021/12/01 08:27:07;;;;;;;7.10;1.35;;;9.50;1.00;;;;;;5046231;28;20025;-79
2021/12/01 08:29:33;;;;;;;7.68;1.23;;;9.60;1.00;;;;;;5045125;28;20045;-79
2021/12/01 08:31:59;;;;;;;12.50;1.40;;;9.60;1.00;;;;;;5032863;28;20409;-79
2021/12/01 08:34:25;;;;;;;6.25;0.70;;;9.40;1.00;;;;;;5025920;28;20044;-79
2021/12/01 08:36:51;;;;;;;9.82;1.55;;;9.30;1.00;;;;;;5033294;28;20485;-79
2021/12/01 08:39:18;;;;;;;6.07;1.17;;;9.30;1.00;;;;;;5028771;28;20547;-80
2021/12/01 08:41:43;;;;;;;8.38;0.88;;;9.40;1.00;;;;;;5030272;28;20465;-80
2021/12/01 08:44:10;;;;;;;7.47;1.60;;;9.40;1.00;;;;;;5031752;28;20022;-80
2021/12/01 08:46:36;;;;;;;7.68;1.20;;;9.30;1.00;;;;;;5032274;28;20079;-78
2021/12/01 08:49:01;;;;;;;12.88;2.38;;;9.20;1.00;;;;;;5031720;28;20029;-79
2021/12/01 08:51:30;;;;;;;10.27;2.08;;;9.30;1.00;;;;;;5014459;28;20025;-79
2021/12/01 08:53:55;;;;;;;12.48;2.28;;;9.40;1.00;;;;;;5031909;28;20067;-80
2021/12/01 08:56:21;;;;;;;12.18;1.73;;;9.70;1.00;;;;;;5031938;28;20021;-80
2021/12/01 08:58:47;;;;;;;6.32;1.27;;;9.60;1.00;;;;;;5031535;28;20477;-80
2021/12/01 09:01:13;;;;;;;13.95;2.25;;;9.50;1.00;;;;;;5032078;28;20425;-81
2021/12/01 09:03:39;;;;;;;13.60;1.58;;;9.40;1.00;;;;;;5034442;28;20025;-83
2021/12/01 09:06:04;;;;;;;6.65;1.90;;;9.40;1.00;;;;;;5031732;28;20036;-78
2021/12/01 09:08:30;;;;;;;8.52;1.60;;;9.40;1.00;;;;;;5032009;28;20025;-78
2021/12/01 09:10:59;;;;;;;10.90;1.73;;;9.40;1.00;;;;;;5033240;28;20096;-78
2021/12/01 09:13:27;;;;;;;11.60;1.83;;;9.40;1.00;;;;;;5033922;28;20450;-77
2021/12/01 09:15:53;;;;;;;13.25;1.75;;;9.50;1.00;;;;;;5033859;28;20073;-77
2021/12/01 09:18:20;;;;;;;21.55;8.75;;;9.60;1.00;;;;;;5033670;28;20064;-77
2021/12/01 09:20:46;;;;;;;11.65;1.90;;;9.80;99.90;;;;;;5033627;28;20453;-77
2021/12/01 09:23:11;;;;;;;12.18;1.38;;;9.90;1.00;;;;;;5031689;28;20028;-77
2021/12/01 09:25:37;;;;;;;18.70;1.95;;;9.80;99.90;;;;;;5031391;28;20021;-79
2021/12/01 09:28:03;;;;;;;12.30;1.85;;;9.80;99.90;;;;;;5030907;28;20392;-78
2021/12/01 09:30:29;;;;;;;14.85;2.20;;;9.70;99.90;;;;;;5031448;28;20104;-78
2021/12/01 09:32:54;;;;;;;13.15;2.03;;;9.80;99.90;;;;;;5030437;28;20032;-77
2021/12/01 09:35:20;;;;;;;14.45;2.08;;;10.10;99.90;;;;;;5029211;28;20021;-77
2021/12/01 09:37:45;;;;;;;16.60;2.78;;;10.40;99.90;;;;;;5028153;28;20108;-78
2021/12/01 09:40:17;;;;;;;16.63;1.90;;;10.50;99.90;;;;;;5030876;28;20022;-78
2021/12/01 09:42:45;;;;;;;13.95;1.65;;;10.30;99.90;;;;;;5023629;28;20071;-77
2021/12/01 09:45:12;;;;;;;15.27;2.53;;;10.10;99.90;;;;;;5030267;28;20037;-77
2021/12/01 09:47:38;;;;;;;13.98;2.80;;;10.00;99.90;;;;;;5031344;28;20384;-77
2021/12/01 09:50:06;;;;;;;12.18;2.20;;;9.90;99.90;;;;;;5031536;28;20350;-78
2021/12/01 09:52:31;;;;;;;16.50;2.50;;;9.90;99.90;;;;;;5033085;28;20033;-77
2021/12/01 09:54:57;;;;;;;15.45;1.98;;;9.60;99.90;;;;;;5033500;28;20021;-77
2021/12/01 09:57:23;;;;;;;14.13;2.22;;;9.50;99.90;;;;;;5033213;28;20040;-79
2021/12/01 09:59:48;;;;;;;13.38;1.73;;;9.50;99.90;;;;;;5033205;28;20021;-77
2021/12/01 10:02:16;;;;;;;12.57;1.98;;;9.50;99.90;;;;;;5030789;28;20060;-77
2021/12/01 10:04:42;;;;;;;14.50;1.50;;;9.40;99.90;;;;;;5030525;28;20615;-78
2021/12/01 10:07:19;;;;;;;13.65;1.60;;;9.40;99.90;;;;;;5031144;28;20163;-78
2021/12/01 10:09:48;;;;;;;8.70;1.50;;;9.40;99.90;;;;;;5029613;28;20120;-79
2021/12/01 10:12:15;;;;;;;9.38;1.80;;;9.60;99.90;;;;;;5029653;28;20420;-78
2021/12/01 10:14:48;;;;;;;10.55;1.75;;;9.60;99.90;;;;;;5012452;28;20026;-78
2021/12/01 10:17:16;;;;;;;11.88;1.77;;;9.50;99.90;;;;;;5030510;28;20021;-78
2021/12/01 10:19:41;;;;;;;5.82;1.38;;;9.30;99.90;;;;;;5031030;28;20400;-78
2021/12/01 10:22:11;;;;;;;7.95;0.60;;;9.20;99.90;;;;;;5030643;28;20500;-79
2021/12/01 10:24:39;;;;;;;4.40;0.82;;;9.30;9.00;;;;;;5031198;28;20025;-77
2021/12/01 10:27:11;;;;;;;8.35;1.20;;;9.20;1.00;;;;;;5031147;28;20461;-77
2021/12/01 10:29:50;;;;;;;9.43;1.35;;;9.30;1.00;;;;;;5030467;28;20038;-77
2021/12/01 10:32:18;;;;;;;8.65;1.75;;;9.50;1.00;;;;;;5031210;28;20497;-77
2021/12/01 10:34:52;;;;;;;11.13;1.70;;;9.50;1.00;;;;;;5030691;28;20024;-77
2021/12/01 10:37:29;;;;;;;13.23;2.00;;;9.70;9.80;;;;;;5030896;28;20041;-78
2021/12/01 10:40:17;;;;;;;7.75;1.45;;;9.70;1.00;;;;;;5013762;28;20017;-78
2021/12/01 10:43:12;;;;;;;10.82;1.45;;;9.60;1.00;;;;;;5029792;28;20108;-78
2021/12/01 10:45:40;;;;;;;10.80;1.35;;;9.60;1.00;;;;;;5030755;28;20032;-77
2021/12/01 10:48:09;;;;;;;11.60;2.00;;;9.60;1.00;;;;;;5030594;28;20065;-77
2021/12/01 10:50:39;;;;;;;10.73;1.38;;;9.50;1.00;;;;;;5033872;28;20036;-77
2021/12/01 10:53:09;;;;;;;17.08;1.58;;;9.30;1.00;;;;;;5033847;28;20021;-77
2021/12/01 10:55:42;;;;;;;10.77;1.77;;;9.50;1.00;;;;;;5016823;28;20095;-77
2021/12/01 10:58:07;;;;;;;12.10;1.40;;;9.50;1.00;;;;;;5034336;28;20545;-77
2021/12/01 11:00:46;;;;;;;20.08;2.47;;;9.50;1.00;;;;;;5034463;28;20104;-77
2021/12/01 11:03:19;;;;;;;10.20;1.92;;;9.70;1.00;;;;;;5033651;28;20021;-77
2021/12/01 11:05:50;;;;;;;14.02;1.33;;;10.10;1.00;;;;;;5034034;28;20025;-77
2021/12/01 11:08:26;;;;;;;16.75;1.83;;;10.20;1.00;;;;;;5033473;28;20066;-77
2021/12/01 11:11:16;;;;;;;12.18;2.17;;;10.00;99.90;;;;;;5030975;28;20021;-77
2021/12/01 11:13:48;;;;;;;13.05;2.42;;;10.10;99.90;;;;;;5033546;28;20035;-78
2021/12/01 11:16:17;;;;;;;11.13;1.83;;;10.30;99.90;;;;;;5034010;28;20033;-78
2021/12/01 11:18:45;;;;;;;15.23;2.10;;;10.40;99.90;;;;;;5033442;28;20098;-78
2021/12/01 11:21:17;;;;;;;11.18;1.75;;;10.20;99.90;;;;;;5038936;28;20254;-80
2021/12/01 11:23:48;;;;;;;11.20;1.65;;;10.20;99.90;;;;;;5026627;28;20056;-78
2021/12/01 11:26:19;;;;;;;10.60;1.58;;;10.20;99.90;;;;;;5032408;28;20547;-77
2021/12/01 11:29:08;;;;;;;13.75;2.00;;;10.20;99.90;;;;;;5033456;28;20061;-77
2021/12/01 11:31:43;;;;;;;18.35;3.53;;;10.00;99.90;;;;;;5033144;28;20028;-78
2021/12/01 11:34:16;;;;;;;11.60;1.75;;;9.90;99.90;;;;;;5031964;28;20021;-78
2021/12/01 11:36:51;;;;;;;16.63;1.67;;;9.90;99.90;;;;;;5035046;28;20029;-78
2021/12/01 11:39:22;;;;;;;16.45;2.45;;;10.10;99.90;;;;;;5035306;28;20029;-78
2021/12/01 11:41:49;;;;;;;12.75;1.88;;;10.00;99.90;;;;;;5035470;28;20120;-78
2021/12/01 11:44:17;;;;;;;10.48;1.30;;;9.80;99.90;;;;;;5035018;28;20025;-77
2021/12/01 11:46:44;;;;;;;10.55;2.17;;;9.70;99.90;;;;;;5017346;28;20087;-77
2021/12/01 11:49:15;;;;;;;11.70;1.48;;;9.70;99.90;;;;;;5034580;28;20021;-77
2021/12/01 11:51:50;;;;;;;19.00;3.05;;;9.60;99.90;;;;;;5030739;28;20523;-77
2021/12/01 11:54:21;;;;;;;14.02;2.00;;;9.50;99.90;;;;;;5017515;28;20551;-77
2021/12/01 11:56:56;;;;;;;7.70;1.00;;;9.60;99.90;;;;;;5010223;28;20117;-77
2021/12/01 11:59:25;;;;;;;8.20;1.00;;;9.70;99.90;;;;;;5012831;28;20458;-77
2021/12/01 12:02:02;;;;;;;7.10;0.80;;;9.70;99.90;;;;;;5031914;28;20116;-77
2021/12/01 12:04:40;;;;;;;5.03;0.73;;;9.70;99.90;;;;;;5029477;28;20025;-78
2021/12/01 12:07:08;;;;;;;10.27;1.35;;;9.50;99.90;;;;;;5012664;28;20022;-77
2021/12/01 12:09:34;;;;;;;3.63;0.82;;;9.50;99.90;;;;;;5021936;28;20393;-77
2021/12/01 12:11:59;;;;;;;5.97;0.93;;;9.60;99.90;;;;;;5019666;28;20355;-77
2021/12/01 12:14:29;;;;;;;10.20;1.08;;;9.60;99.90;;;;;;5027796;28;20607;-77
2021/12/01 12:17:14;;;;;;;8.50;1.42;;;9.60;99.90;;;;;;5012388;28;20497;-81
2021/12/01 12:19:53;;;;;;;11.38;2.20;;;9.60;99.90;;;;;;5012652;28;20033;-80
2021/12/01 12:22:28;;;;;;;9.30;2.05;;;9.30;99.90;;;;;;5021502;28;20029;-80
2021/12/01 12:24:57;;;;;;;10.10;1.75;;;9.10;99.90;;;;;;5014947;28;20048;-81
2021/12/01 12:27:41;;;;;;;8.43;1.10;;;9.00;99.90;;;;;;5047647;28;20033;-80
2021/12/01 12:30:09;;;;;;;7.68;0.98;;;8.90;99.90;;;;;;5032838;28;20050;-80
2021/12/01 12:32:36;;;;;;;16.05;0.98;;;8.90;99.90;;;;;;5031311;28;20025;-80
2021/12/01 12:35:06;;;;;;;8.98;1.30;;;8.80;99.90;;;;;;5030990;28;20025;-80
2021/12/01 12:37:33;;;;;;;4.75;1.02;;;8.80;99.90;;;;;;5032029;28;20060;-78
2021/12/01 12:40:00;;;;;;;10.70;1.73;;;8.70;99.90;;;;;;5032159;28;20037;-77
2021/12/01 12:42:27;;;;;;;13.25;1.45;;;8.70;99.90;;;;;;5032455;28;20060;-78
2021/12/01 12:44:58;;;;;;;7.63;1.25;;;8.60;99.90;;;;;;5031974;28;20108;-78
2021/12/01 12:47:27;;;;;;;6.90;1.17;;;8.50;99.90;;;;;;5031941;28;20032;-78
2021/12/01 12:50:02;;;;;;;10.45;1.00;;;8.50;99.90;;;;;;5031482;28;20037;-77
2021/12/01 12:52:30;;;;;;;9.30;2.20;;;8.70;99.90;;;;;;5047417;28;20087;-78
2021/12/01 12:55:09;;;;;;;8.75;1.23;;;8.70;99.90;;;;;;5032421;28;20033;-77
2021/12/01 12:57:49;;;;;;;11.23;1.70;;;8.80;99.90;;;;;;5032088;28;20030;-78
2021/12/01 13:00:19;;;;;;;11.55;1.33;;;8.70;99.90;;;;;;5031498;28;20030;-78